createdAt,value
2024-01-24T00:02:09.651Z,20.27
2024-01-24T00:04:37.656Z,18.40
2024-01-24T00:07:04.634Z,13.43
2024-01-24T00:09:31.675Z,19.75
2024-01-24T00:11:59.108Z,12.95
2024-01-24T00:14:26.451Z,16.20
2024-01-24T00:16:53.119Z,16.25
2024-01-24T00:19:19.860Z,14.20
2024-01-24T00:21:48.090Z,15.27
2024-01-24T00:24:14.944Z,12.23
2024-01-24T00:26:41.616Z,11.20
2024-01-24T00:29:08.354Z,16.30
2024-01-24T00:31:35.000Z,12.77
2024-01-24T00:34:02.433Z,10.45
2024-01-24T00:36:29.204Z,9.50
2024-01-24T00:38:57.351Z,12.45
2024-01-24T00:41:23.971Z,15.93
2024-01-24T00:43:50.581Z,10.43
2024-01-24T00:46:17.187Z,7.55
2024-01-24T00:48:43.910Z,16.58
2024-01-24T00:51:10.614Z,11.88
2024-01-24T00:53:38.227Z,14.75
2024-01-24T00:56:06.817Z,11.52
2024-01-24T00:58:33.444Z,7.35
2024-01-24T01:01:00.282Z,9.20
2024-01-24T01:03:27.059Z,12.68
2024-01-24T01:05:53.778Z,11.82
2024-01-24T01:08:20.360Z,9.45
2024-01-24T01:10:47.017Z,11.80
2024-01-24T01:13:15.087Z,12.43
2024-01-24T01:15:42.245Z,14.95
2024-01-24T01:18:09.069Z,10.50
2024-01-24T01:20:35.665Z,12.20
2024-01-24T01:23:03.255Z,10.50
2024-01-24T01:25:29.885Z,4.97
2024-01-24T01:27:56.567Z,8.07
2024-01-24T01:30:24.767Z,5.00
2024-01-24T01:32:51.663Z,7.20
2024-01-24T01:35:18.332Z,7.57
2024-01-24T01:37:44.944Z,7.10
2024-01-24T01:40:12.091Z,2.92
2024-01-24T01:42:43.450Z,8.65
2024-01-24T01:45:10.325Z,8.05
2024-01-24T01:47:39.538Z,7.65
2024-01-24T01:50:09.451Z,5.78
2024-01-24T01:52:36.615Z,7.80
2024-01-24T01:55:04.022Z,7.07
2024-01-24T01:57:31.046Z,7.15
2024-01-24T01:59:58.219Z,5.50
2024-01-24T02:02:24.877Z,2.70
2024-01-24T02:04:53.310Z,3.63
2024-01-24T02:07:20.210Z,3.92
2024-01-24T02:09:47.066Z,5.55
2024-01-24T02:12:13.672Z,2.28
2024-01-24T02:14:40.328Z,3.75
2024-01-24T02:17:07.124Z,7.15
2024-01-24T02:19:33.950Z,4.07
2024-01-24T02:22:02.000Z,5.70
2024-01-24T02:24:30.399Z,3.28
2024-01-24T02:26:57.018Z,3.72
2024-01-24T02:29:23.634Z,3.90
2024-01-24T02:31:50.223Z,2.05
2024-01-24T02:34:17.025Z,1.95
2024-01-24T02:36:43.770Z,2.00
2024-01-24T02:39:10.516Z,1.67
2024-01-24T02:41:40.207Z,2.17
2024-01-24T02:44:06.798Z,4.05
2024-01-24T02:46:33.388Z,2.92
2024-01-24T02:49:00.174Z,2.30
2024-01-24T02:51:27.321Z,1.85
2024-01-24T02:53:54.090Z,4.40
2024-01-24T02:56:20.893Z,3.80
2024-01-24T02:58:49.091Z,6.00
2024-01-24T03:01:15.883Z,2.88
2024-01-24T03:03:42.961Z,2.20
2024-01-24T03:06:09.807Z,4.28
2024-01-24T03:08:51.788Z,4.25
2024-01-24T03:11:18.940Z,1.65
2024-01-24T03:13:45.747Z,5.40
2024-01-24T03:16:13.908Z,1.52
2024-01-24T03:18:41.070Z,3.00
2024-01-24T03:21:08.558Z,2.58
2024-01-24T03:23:35.227Z,3.42
2024-01-24T03:26:01.820Z,2.28
2024-01-24T03:28:28.411Z,5.72
2024-01-24T03:30:55.013Z,4.07
2024-01-24T03:33:23.170Z,2.20
2024-01-24T03:35:49.860Z,3.15
2024-01-24T03:38:16.517Z,4.03
2024-01-24T03:40:43.114Z,3.13
2024-01-24T03:43:09.715Z,3.55
2024-01-24T03:45:37.182Z,4.63
2024-01-24T03:48:04.390Z,5.03
2024-01-24T03:50:32.627Z,2.67
2024-01-24T03:52:59.342Z,3.63
2024-01-24T03:55:25.964Z,3.60
2024-01-24T03:57:52.663Z,2.75
2024-01-24T04:00:19.644Z,1.90
2024-01-24T04:02:46.266Z,2.35
2024-01-24T04:05:12.917Z,3.17
2024-01-24T04:07:41.036Z,0.57
2024-01-24T04:10:08.902Z,2.03
2024-01-24T04:12:35.540Z,2.83
2024-01-24T04:15:02.227Z,3.33
2024-01-24T04:17:28.879Z,4.82
2024-01-24T04:19:55.459Z,1.83
2024-01-24T04:22:22.080Z,3.53
2024-01-24T04:24:50.221Z,4.28
2024-01-24T04:27:16.915Z,4.63
2024-01-24T04:29:43.896Z,4.15
2024-01-24T04:32:10.630Z,5.72
2024-01-24T04:34:37.399Z,1.75
2024-01-24T04:37:04.278Z,3.25
2024-01-24T04:39:30.918Z,1.83
2024-01-24T04:42:05.566Z,3.60
2024-01-24T04:44:38.841Z,1.92
2024-01-24T04:47:05.835Z,1.50
2024-01-24T04:49:43.648Z,2.97
2024-01-24T04:52:12.080Z,2.28
2024-01-24T04:54:38.813Z,4.93
2024-01-24T04:57:07.085Z,3.50
2024-01-24T04:59:42.639Z,3.28
2024-01-24T05:02:17.207Z,3.67
2024-01-24T05:04:43.948Z,1.85
2024-01-24T05:07:10.804Z,5.60
2024-01-24T05:09:37.573Z,5.45
2024-01-24T05:12:05.008Z,4.78
2024-01-24T05:14:34.489Z,4.75
2024-01-24T05:17:01.150Z,1.67
2024-01-24T05:19:27.836Z,4.22
2024-01-24T05:21:54.843Z,1.65
2024-01-24T05:24:21.504Z,3.83
2024-01-24T05:26:48.133Z,3.10
2024-01-24T05:29:15.875Z,6.18
2024-01-24T05:31:43.868Z,3.95
2024-01-24T05:34:10.770Z,3.47
2024-01-24T05:36:37.648Z,6.80
2024-01-24T05:39:04.457Z,1.75
2024-01-24T05:41:31.212Z,3.60
2024-01-24T05:43:57.807Z,4.22
2024-01-24T05:46:24.413Z,4.90
2024-01-24T05:48:52.468Z,2.58
2024-01-24T05:51:19.185Z,3.03
2024-01-24T05:53:45.773Z,3.28
2024-01-24T05:56:12.565Z,4.68
2024-01-24T05:58:39.185Z,2.10
2024-01-24T06:01:05.991Z,1.88
2024-01-24T06:03:32.770Z,2.75
2024-01-24T06:06:01.176Z,4.22
2024-01-24T06:08:27.950Z,3.95
2024-01-24T06:10:54.948Z,5.22
2024-01-24T06:13:21.591Z,4.65
2024-01-24T06:15:48.209Z,3.10
2024-01-24T06:18:14.835Z,2.60
2024-01-24T06:20:41.487Z,2.70
2024-01-24T06:23:09.487Z,4.43
2024-01-24T06:25:36.219Z,0.75
2024-01-24T06:28:02.912Z,2.90
2024-01-24T06:30:31.128Z,3.45
2024-01-24T06:32:58.498Z,4.55
2024-01-24T06:35:25.140Z,2.70
2024-01-24T06:37:51.940Z,1.88
2024-01-24T06:40:19.913Z,2.03
2024-01-24T06:42:46.648Z,5.57
2024-01-24T06:45:13.428Z,3.97
2024-01-24T06:47:40.406Z,2.33
2024-01-24T06:50:07.993Z,2.03
2024-01-24T06:52:34.981Z,2.20
2024-01-24T06:55:01.863Z,4.60
2024-01-24T06:57:29.897Z,8.00
2024-01-24T06:59:56.916Z,6.15
2024-01-24T07:02:23.544Z,9.27
2024-01-24T07:04:50.200Z,12.32
2024-01-24T07:07:17.007Z,6.47
2024-01-24T07:09:43.690Z,9.55
2024-01-24T07:12:12.546Z,11.25
2024-01-24T07:14:40.674Z,7.70
2024-01-24T07:17:07.338Z,7.18
2024-01-24T07:19:34.153Z,7.57
2024-01-24T07:22:01.893Z,12.50
2024-01-24T07:24:29.650Z,12.48
2024-01-24T07:26:56.286Z,12.88
2024-01-24T07:29:23.188Z,13.80
2024-01-24T07:31:51.219Z,17.25
2024-01-24T07:34:17.882Z,12.52
2024-01-24T07:36:44.585Z,18.02
2024-01-24T07:39:11.346Z,17.27
2024-01-24T07:41:37.952Z,14.65
2024-01-24T07:44:04.785Z,19.33
2024-01-24T07:46:31.632Z,14.93
2024-01-24T07:49:00.131Z,12.05
2024-01-24T07:51:27.044Z,22.10
2024-01-24T07:53:53.786Z,16.27
2024-01-24T07:56:25.978Z,14.90
2024-01-24T07:58:53.954Z,10.70
2024-01-24T08:01:22.141Z,20.33
2024-01-24T08:03:50.940Z,17.20
2024-01-24T08:06:19.664Z,17.08
2024-01-24T08:08:46.456Z,13.55
2024-01-24T08:11:13.609Z,15.85
2024-01-24T08:13:40.334Z,17.80
2024-01-24T08:16:07.071Z,13.32
2024-01-24T08:18:34.017Z,11.95
2024-01-24T08:21:00.821Z,11.98
2024-01-24T08:23:37.824Z,11.18
2024-01-24T08:26:10.289Z,14.68
2024-01-24T08:28:36.969Z,18.95
2024-01-24T08:31:04.003Z,16.55
2024-01-24T08:33:30.735Z,16.95
2024-01-24T08:35:57.384Z,11.90
2024-01-24T08:38:24.004Z,16.98
2024-01-24T08:40:52.043Z,17.13
2024-01-24T08:43:18.711Z,9.25
2024-01-24T08:45:46.709Z,14.65
2024-01-24T08:48:14.687Z,16.20
2024-01-24T08:50:41.380Z,13.68
2024-01-24T08:53:08.011Z,13.18
2024-01-24T08:55:34.785Z,14.68
2024-01-24T08:58:02.958Z,14.30
2024-01-24T09:00:29.791Z,17.15
2024-01-24T09:02:56.746Z,15.75
2024-01-24T09:05:23.682Z,18.90
2024-01-24T09:07:50.283Z,18.20
2024-01-24T09:10:17.865Z,14.57
2024-01-24T09:12:44.641Z,17.40
2024-01-24T09:15:13.039Z,8.48
2024-01-24T09:17:39.735Z,14.10
2024-01-24T09:20:09.012Z,11.38
2024-01-24T09:22:35.868Z,14.10
2024-01-24T09:25:06.435Z,7.15
2024-01-24T09:27:35.270Z,8.37
2024-01-24T09:30:01.937Z,11.27
2024-01-24T09:32:30.172Z,11.38
2024-01-24T09:34:57.059Z,11.10
2024-01-24T09:37:23.795Z,13.93
2024-01-24T09:39:51.778Z,16.75
2024-01-24T09:42:20.974Z,16.52
2024-01-24T09:44:48.975Z,25.48
2024-01-24T09:47:16.321Z,13.90
2024-01-24T09:49:44.938Z,18.50
2024-01-24T09:52:13.151Z,21.45
2024-01-24T09:54:41.008Z,22.95
2024-01-24T09:57:08.007Z,13.23
2024-01-24T09:59:34.788Z,11.55
2024-01-24T10:02:01.472Z,10.98
2024-01-24T10:04:29.267Z,19.65
2024-01-24T10:06:58.133Z,16.23
2024-01-24T10:09:24.866Z,20.75
2024-01-24T10:11:51.746Z,17.60
2024-01-24T10:14:19.436Z,15.52
2024-01-24T10:16:46.330Z,13.48
2024-01-24T10:19:13.238Z,18.52
2024-01-24T10:21:41.752Z,13.32
2024-01-24T10:24:09.989Z,21.48
2024-01-24T10:26:36.651Z,20.38
2024-01-24T10:29:04.274Z,23.73
2024-01-24T10:31:31.765Z,25.33
2024-01-24T10:33:58.492Z,24.05
2024-01-24T10:36:31.837Z,16.40
2024-01-24T10:39:02.260Z,23.55
2024-01-24T10:41:31.593Z,21.25
2024-01-24T10:44:06.058Z,21.27
2024-01-24T10:46:33.795Z,20.42
2024-01-24T10:49:02.549Z,21.98
2024-01-24T10:51:30.413Z,22.92
2024-01-24T10:53:58.052Z,23.83
2024-01-24T10:56:27.589Z,20.27
2024-01-24T10:58:56.738Z,18.65
2024-01-24T11:01:24.290Z,23.85
2024-01-24T11:03:53.691Z,16.58
2024-01-24T11:06:23.448Z,19.70
2024-01-24T11:08:58.042Z,23.35
2024-01-24T11:11:28.412Z,23.58
2024-01-24T11:13:58.494Z,23.08
2024-01-24T11:16:32.548Z,23.77
2024-01-24T11:19:00.400Z,32.97
2024-01-24T11:21:29.542Z,24.27
2024-01-24T11:23:56.579Z,16.75
2024-01-24T11:26:48.159Z,20.70
2024-01-24T11:29:16.329Z,21.08
2024-01-24T11:31:44.162Z,24.13
2024-01-24T11:34:12.241Z,14.63
2024-01-24T11:36:42.042Z,16.27
2024-01-24T11:39:33.689Z,22.15
2024-01-24T11:42:34.596Z,27.40
2024-01-24T11:45:17.084Z,24.50
2024-01-24T11:47:44.291Z,21.67
2024-01-24T11:50:11.168Z,18.73
2024-01-24T11:52:37.935Z,15.70
2024-01-24T11:55:05.869Z,20.70
2024-01-24T11:57:32.612Z,18.77
2024-01-24T11:59:59.323Z,18.95
2024-01-24T12:02:27.343Z,17.10
2024-01-24T12:04:54.281Z,22.45
2024-01-24T12:07:21.336Z,15.32
2024-01-24T12:09:48.089Z,27.10
2024-01-24T12:12:15.235Z,13.77
2024-01-24T12:14:42.480Z,21.35
2024-01-24T12:17:09.945Z,22.42
2024-01-24T12:19:42.562Z,19.33
2024-01-24T12:22:13.616Z,19.08
2024-01-24T12:24:41.112Z,22.45
2024-01-24T12:27:09.230Z,27.90
2024-01-24T12:29:36.331Z,17.35
2024-01-24T12:32:03.769Z,20.10
2024-01-24T12:34:30.607Z,20.70
2024-01-24T12:36:59.431Z,17.13
2024-01-24T12:39:26.693Z,20.38
2024-01-24T12:41:53.586Z,20.50
2024-01-24T12:44:20.670Z,17.27
2024-01-24T12:46:55.740Z,22.70
2024-01-24T12:49:22.671Z,16.90
2024-01-24T12:51:50.150Z,22.40
2024-01-24T12:54:18.367Z,23.10
2024-01-24T12:56:46.589Z,23.15
2024-01-24T12:59:13.342Z,19.83
2024-01-24T13:01:41.804Z,15.40
2024-01-24T13:04:08.806Z,21.35
2024-01-24T13:06:35.807Z,20.70
2024-01-24T13:09:03.153Z,19.05
2024-01-24T13:11:31.255Z,25.95
2024-01-24T13:13:58.089Z,21.17
2024-01-24T13:16:24.903Z,18.10
2024-01-24T13:18:51.621Z,17.83
2024-01-24T13:21:18.328Z,26.08
2024-01-24T13:23:44.960Z,16.08
2024-01-24T13:26:11.657Z,21.55
2024-01-24T13:28:40.579Z,20.25
2024-01-24T13:31:07.322Z,21.73
2024-01-24T13:33:35.197Z,23.15
2024-01-24T13:36:02.522Z,23.20
2024-01-24T13:38:29.784Z,18.13
2024-01-24T13:40:57.073Z,20.50
2024-01-24T13:43:23.843Z,27.15
2024-01-24T13:45:51.970Z,19.98
2024-01-24T13:48:18.711Z,18.38
2024-01-24T13:50:45.346Z,20.77
2024-01-24T13:53:12.353Z,18.35
2024-01-24T13:55:39.595Z,15.80
2024-01-24T13:58:06.678Z,17.58
2024-01-24T14:00:33.654Z,18.88
2024-01-24T14:03:01.875Z,21.05
2024-01-24T14:05:28.979Z,18.45
2024-01-24T14:07:55.768Z,20.40
2024-01-24T14:10:22.792Z,20.40
2024-01-24T14:12:49.583Z,30.98
2024-01-24T14:15:24.511Z,20.25
2024-01-24T14:18:01.198Z,16.10
2024-01-24T14:20:28.879Z,16.27
2024-01-24T14:22:55.511Z,22.10
2024-01-24T14:25:22.211Z,20.23
2024-01-24T14:27:48.935Z,18.38
2024-01-24T14:30:16.114Z,23.60
2024-01-24T14:32:42.847Z,18.85
2024-01-24T14:35:15.882Z,20.83
2024-01-24T14:37:42.671Z,15.73
2024-01-24T14:40:09.881Z,20.60
2024-01-24T14:42:36.642Z,17.17
2024-01-24T14:45:03.755Z,23.08
2024-01-24T14:47:30.482Z,17.95
2024-01-24T14:49:57.178Z,22.98
2024-01-24T14:52:25.300Z,16.42
2024-01-24T14:54:52.088Z,20.00
2024-01-24T14:57:18.755Z,17.10
2024-01-24T14:59:45.400Z,24.40
2024-01-24T15:02:12.050Z,19.55
2024-01-24T15:04:38.734Z,19.75
2024-01-24T15:07:05.770Z,17.27
2024-01-24T15:09:34.978Z,18.23
2024-01-24T15:12:02.038Z,15.52
2024-01-24T15:14:28.712Z,16.98
2024-01-24T15:16:55.737Z,20.05
2024-01-24T15:19:22.703Z,12.60
2024-01-24T15:21:49.636Z,17.58
2024-01-24T15:24:17.560Z,18.00
2024-01-24T15:26:46.787Z,14.43
2024-01-24T15:29:13.454Z,23.17
2024-01-24T15:31:40.133Z,17.38
2024-01-24T15:34:07.246Z,22.88
2024-01-24T15:36:34.123Z,17.90
2024-01-24T15:39:00.818Z,18.55
2024-01-24T15:41:27.435Z,14.45
2024-01-24T15:43:55.469Z,15.30
2024-01-24T15:46:22.719Z,23.73
2024-01-24T15:48:49.749Z,19.17
2024-01-24T15:51:18.415Z,14.73
2024-01-24T15:53:45.067Z,14.85
2024-01-24T15:56:11.672Z,18.58
2024-01-24T15:58:39.679Z,15.85
2024-01-24T16:01:08.344Z,18.05
2024-01-24T16:03:35.147Z,15.23
2024-01-24T16:06:02.421Z,14.90
2024-01-24T16:08:29.275Z,16.95
2024-01-24T16:10:56.149Z,15.80
2024-01-24T16:13:23.140Z,18.25
2024-01-24T16:15:51.501Z,15.88
2024-01-24T16:18:19.722Z,14.13
2024-01-24T16:20:46.389Z,14.75
2024-01-24T16:23:13.058Z,20.33
2024-01-24T16:25:39.766Z,21.63
2024-01-24T16:28:06.806Z,12.95
2024-01-24T16:30:33.620Z,17.48
2024-01-24T16:33:00.364Z,13.73
2024-01-24T16:35:28.578Z,20.92
2024-01-24T16:37:55.547Z,26.75
2024-01-24T16:40:22.231Z,18.73
2024-01-24T16:42:49.033Z,19.67
2024-01-24T16:45:17.599Z,14.93
2024-01-24T16:47:44.313Z,14.05
2024-01-24T16:50:11.678Z,20.90
2024-01-24T16:52:39.707Z,14.13
2024-01-24T16:55:07.077Z,22.02
2024-01-24T16:57:34.038Z,24.50
2024-01-24T17:00:00.892Z,16.65
2024-01-24T17:02:34.876Z,21.52
2024-01-24T17:05:09.272Z,16.48
2024-01-24T17:07:36.005Z,21.10
2024-01-24T17:10:04.726Z,23.00
2024-01-24T17:12:31.746Z,20.92
2024-01-24T17:14:58.476Z,26.50
2024-01-24T17:17:25.177Z,20.45
2024-01-24T17:19:51.913Z,25.45
2024-01-24T17:22:18.618Z,21.20
2024-01-24T17:24:45.276Z,19.48
2024-01-24T17:27:13.333Z,23.95
2024-01-24T17:29:40.244Z,21.65
2024-01-24T17:32:07.084Z,27.13
2024-01-24T17:34:33.802Z,28.30
2024-01-24T17:37:01.069Z,19.00
2024-01-24T17:39:28.254Z,20.33
2024-01-24T17:41:55.260Z,17.05
2024-01-24T17:44:23.582Z,25.80
2024-01-24T17:46:50.360Z,17.27
2024-01-24T17:49:17.319Z,24.67
2024-01-24T17:51:44.155Z,24.20
2024-01-24T17:54:10.917Z,20.77
2024-01-24T17:56:37.670Z,29.45
2024-01-24T17:59:04.356Z,24.90
2024-01-24T18:01:32.827Z,27.00
2024-01-24T18:03:59.873Z,29.33
2024-01-24T18:06:26.979Z,28.58
2024-01-24T18:08:54.310Z,32.60
2024-01-24T18:11:21.034Z,31.05
2024-01-24T18:13:47.887Z,24.08
2024-01-24T18:16:14.681Z,20.45
2024-01-24T18:18:42.843Z,24.98
2024-01-24T18:21:11.218Z,26.98
2024-01-24T18:23:38.029Z,26.77
2024-01-24T18:26:04.961Z,27.48
2024-01-24T18:28:31.660Z,30.20
2024-01-24T18:30:58.439Z,28.80
2024-01-24T18:33:25.400Z,27.15
2024-01-24T18:35:53.436Z,24.77
2024-01-24T18:38:20.087Z,36.35
2024-01-24T18:40:46.696Z,24.02
2024-01-24T18:43:13.581Z,24.50
2024-01-24T18:45:40.385Z,27.25
2024-01-24T18:48:07.885Z,22.95
2024-01-24T18:50:34.948Z,21.00
2024-01-24T18:53:03.173Z,28.30
2024-01-24T18:55:29.956Z,22.98
2024-01-24T18:57:57.030Z,24.13
2024-01-24T19:00:23.957Z,25.65
2024-01-24T19:02:51.108Z,31.85
2024-01-24T19:05:23.802Z,29.52
2024-01-24T19:07:57.654Z,27.27
2024-01-24T19:10:27.119Z,27.95
2024-01-24T19:12:54.040Z,26.00
2024-01-24T19:15:20.691Z,25.98
2024-01-24T19:17:49.246Z,22.83
2024-01-24T19:20:16.965Z,24.90
2024-01-24T19:22:43.838Z,24.48
2024-01-24T19:25:10.598Z,26.65
2024-01-24T19:27:38.674Z,24.85
2024-01-24T19:30:06.703Z,18.58
2024-01-24T19:32:33.440Z,34.28
2024-01-24T19:35:00.199Z,29.45
2024-01-24T19:37:26.921Z,29.73
2024-01-24T19:39:53.840Z,27.63
2024-01-24T19:42:20.664Z,36.28
2024-01-24T19:44:48.778Z,34.83
2024-01-24T19:47:15.810Z,22.45
2024-01-24T19:49:43.419Z,26.02
2024-01-24T19:52:10.507Z,23.00
2024-01-24T19:54:37.274Z,29.45
2024-01-24T19:57:04.515Z,25.33
2024-01-24T19:59:31.305Z,27.67
2024-01-24T20:01:59.377Z,30.58
2024-01-24T20:04:26.134Z,35.00
2024-01-24T20:06:52.865Z,33.03
2024-01-24T20:09:19.577Z,28.20
2024-01-24T20:11:46.325Z,32.25
2024-01-24T20:14:13.258Z,31.27
2024-01-24T20:16:40.143Z,37.72
2024-01-24T20:19:08.177Z,26.42
2024-01-24T20:21:38.929Z,34.55
2024-01-24T20:24:06.169Z,25.45
2024-01-24T20:26:32.816Z,26.45
2024-01-24T20:28:59.457Z,25.95
2024-01-24T20:31:26.358Z,29.42
2024-01-24T20:33:53.140Z,24.42
2024-01-24T20:36:21.238Z,30.63
2024-01-24T20:38:47.927Z,27.60
2024-01-24T20:41:14.582Z,28.83
2024-01-24T20:43:41.186Z,33.00
2024-01-24T20:46:08.895Z,27.45
2024-01-24T20:48:35.914Z,25.42
2024-01-24T20:51:03.844Z,21.35
2024-01-24T20:53:31.883Z,40.33
2024-01-24T20:55:59.067Z,25.45
2024-01-24T20:58:26.319Z,30.10
2024-01-24T21:00:53.871Z,31.88
2024-01-24T21:03:21.202Z,33.35
2024-01-24T21:05:48.256Z,30.30
2024-01-24T21:08:15.118Z,26.35
2024-01-24T21:10:49.080Z,28.58
2024-01-24T21:13:22.195Z,24.90
2024-01-24T21:15:48.991Z,30.77
2024-01-24T21:18:16.496Z,27.33
2024-01-24T21:20:43.390Z,26.05
2024-01-24T21:23:10.298Z,22.33
2024-01-24T21:25:36.991Z,26.25
2024-01-24T21:28:05.764Z,26.45
2024-01-24T21:30:32.521Z,25.75
2024-01-24T21:32:59.317Z,32.60
2024-01-24T21:35:26.041Z,32.65
2024-01-24T21:37:52.733Z,29.23
2024-01-24T21:40:19.436Z,31.05
2024-01-24T21:42:46.167Z,26.63
2024-01-24T21:45:14.479Z,30.05
2024-01-24T21:47:42.367Z,21.88
2024-01-24T21:50:09.934Z,25.52
2024-01-24T21:52:36.610Z,29.23
2024-01-24T21:55:03.351Z,27.23
2024-01-24T21:57:30.200Z,27.75
2024-01-24T21:59:57.019Z,26.63
2024-01-24T22:02:25.106Z,27.33
2024-01-24T22:04:52.194Z,37.28
2024-01-24T22:07:19.010Z,27.65
2024-01-24T22:09:45.805Z,31.35
2024-01-24T22:12:12.845Z,30.98
2024-01-24T22:14:39.556Z,24.92
2024-01-24T22:17:06.230Z,20.85
2024-01-24T22:19:34.351Z,39.15
2024-01-24T22:22:01.068Z,16.25
2024-01-24T22:24:27.723Z,27.65
2024-01-24T22:26:54.319Z,25.50
2024-01-24T22:29:20.975Z,25.40
2024-01-24T22:31:47.599Z,19.80
2024-01-24T22:34:14.327Z,21.58
2024-01-24T22:36:42.493Z,25.38
2024-01-24T22:39:09.106Z,21.73
2024-01-24T22:41:40.427Z,17.35
2024-01-24T22:44:07.093Z,26.77
2024-01-24T22:46:33.805Z,22.88
2024-01-24T22:49:00.758Z,33.50
2024-01-24T22:51:27.519Z,25.35
2024-01-24T22:53:55.863Z,26.92
2024-01-24T22:56:22.566Z,33.05
2024-01-24T22:58:49.153Z,23.77
2024-01-24T23:01:15.949Z,27.42
2024-01-24T23:03:42.784Z,23.23
2024-01-24T23:06:09.478Z,25.48
2024-01-24T23:08:36.139Z,23.50
2024-01-24T23:11:04.600Z,25.70
2024-01-24T23:13:31.272Z,25.83
2024-01-24T23:15:58.465Z,25.33
2024-01-24T23:18:25.155Z,29.98
2024-01-24T23:20:51.789Z,28.05
2024-01-24T23:23:19.143Z,21.08
2024-01-24T23:25:45.813Z,30.02
2024-01-24T23:28:13.886Z,22.40
2024-01-24T23:30:40.698Z,27.70
2024-01-24T23:33:07.409Z,24.45
2024-01-24T23:35:34.202Z,27.27
2024-01-24T23:38:00.956Z,21.98
2024-01-24T23:40:27.663Z,26.83
2024-01-24T23:42:54.404Z,22.35
2024-01-24T23:45:22.554Z,26.75
2024-01-24T23:47:49.449Z,27.85
2024-01-24T23:50:16.507Z,22.40
2024-01-24T23:52:43.349Z,32.20
2024-01-24T23:55:10.701Z,23.67
2024-01-24T23:57:37.363Z,30.52
